createdAt,value
2023-02-28T00:02:57.684Z,103095.25
2023-02-28T00:06:00.745Z,103089.06
2023-02-28T00:09:04.163Z,103093.50
2023-02-28T00:12:11.075Z,103097.09
2023-02-28T00:15:14.124Z,103089.97
2023-02-28T00:18:17.039Z,103097.09
2023-02-28T00:21:20.904Z,103096.22
2023-02-28T00:24:23.890Z,103098.00
2023-02-28T00:27:28.364Z,103092.72
2023-02-28T00:30:31.368Z,103091.81
2023-02-28T00:33:34.556Z,103090.94
2023-02-28T00:36:37.588Z,103101.59
2023-02-28T00:39:41.769Z,103096.25
2023-02-28T00:42:46.155Z,103097.19
2023-02-28T00:45:49.090Z,103097.19
2023-02-28T00:48:52.089Z,103098.06
2023-02-28T00:51:56.441Z,103108.72
2023-02-28T00:54:59.501Z,103107.84
2023-02-28T00:58:03.813Z,103106.09
2023-02-28T01:01:06.948Z,103108.75
2023-02-28T01:04:09.962Z,103111.44
2023-02-28T01:07:12.968Z,103099.88
2023-02-28T01:10:16.290Z,103104.31
2023-02-28T01:13:20.933Z,103103.41
2023-02-28T01:16:23.984Z,103107.91
2023-02-28T01:19:26.905Z,103109.69
2023-02-28T01:22:30.262Z,103107.88
2023-02-28T01:25:36.623Z,103102.56
2023-02-28T01:28:43.475Z,103103.47
2023-02-28T01:31:46.733Z,103098.16
2023-02-28T01:34:49.686Z,103103.50
2023-02-28T01:37:52.676Z,103097.28
2023-02-28T01:40:55.916Z,103100.84
2023-02-28T01:44:06.871Z,103094.63
2023-02-28T01:47:09.965Z,103089.28
2023-02-28T01:50:18.324Z,103093.72
2023-02-28T01:53:25.770Z,103089.28
2023-02-28T01:56:33.621Z,103096.38
2023-02-28T01:59:47.117Z,103091.03
2023-02-28T02:02:53.475Z,103096.38
2023-02-28T02:05:56.498Z,103087.47
2023-02-28T02:08:59.446Z,103087.47
2023-02-28T02:12:16.694Z,103083.91
2023-02-28T02:15:28.762Z,103085.69
2023-02-28T02:18:42.328Z,103083.00
2023-02-28T02:22:15.238Z,103091.00
2023-02-28T02:25:28.800Z,103084.75
2023-02-28T02:29:02.097Z,103086.56
2023-02-28T02:32:27.841Z,103089.22
2023-02-28T02:35:37.536Z,103080.34
2023-02-28T02:38:48.990Z,103088.31
2023-02-28T02:41:54.937Z,103086.53
2023-02-28T02:45:03.437Z,103086.53
2023-02-28T02:48:11.293Z,103089.22
2023-02-28T02:51:18.505Z,103089.22
2023-02-28T02:54:28.948Z,103096.31
2023-02-28T02:57:38.224Z,103089.22
2023-02-28T03:00:44.868Z,103103.44
2023-02-28T03:03:48.081Z,103092.75
2023-02-28T03:06:55.878Z,103092.75
2023-02-28T03:09:59.918Z,103089.22
2023-02-28T03:13:17.000Z,103099.88
2023-02-28T03:16:35.728Z,103089.22
2023-02-28T03:19:52.456Z,103094.53
2023-02-28T03:23:06.066Z,103106.97
2023-02-28T03:26:15.781Z,103104.31
2023-02-28T03:29:29.777Z,103106.97
2023-02-28T03:32:39.677Z,103109.66
2023-02-28T03:35:46.028Z,103105.19
2023-02-28T03:38:56.633Z,103108.75
2023-02-28T03:42:03.209Z,103102.56
2023-02-28T03:45:11.300Z,103108.81
2023-02-28T03:48:19.635Z,103108.81
2023-02-28T03:51:26.433Z,103116.81
2023-02-28T03:54:35.541Z,103107.03
2023-02-28T03:57:45.536Z,103111.50
2023-02-28T04:00:53.405Z,103115.88
2023-02-28T04:03:56.441Z,103123.00
2023-02-28T04:07:04.285Z,103121.19
2023-02-28T04:10:10.125Z,103114.06
2023-02-28T04:13:13.027Z,103115.84
2023-02-28T04:16:32.148Z,103121.13
2023-02-28T04:19:37.393Z,103122.88
2023-02-28T04:22:40.345Z,103119.31
2023-02-28T04:25:44.684Z,103121.09
2023-02-28T04:28:47.701Z,103114.88
2023-02-28T04:31:50.994Z,103122.84
2023-02-28T04:34:53.993Z,103121.06
2023-02-28T04:37:56.965Z,103121.09
2023-02-28T04:41:02.101Z,103119.38
2023-02-28T04:44:05.211Z,103121.13
2023-02-28T04:47:08.265Z,103122.91
2023-02-28T04:50:12.022Z,103122.03
2023-02-28T04:53:14.980Z,103124.72
2023-02-28T04:56:19.937Z,103125.63
2023-02-28T04:59:22.928Z,103129.16
2023-02-28T05:02:25.972Z,103132.75
2023-02-28T05:05:29.046Z,103134.53
2023-02-28T05:08:32.001Z,103133.63
2023-02-28T05:11:38.282Z,103131.84
2023-02-28T05:14:41.239Z,103138.97
2023-02-28T05:17:44.419Z,103138.97
2023-02-28T05:20:47.549Z,103138.06
2023-02-28T05:23:50.454Z,103138.97
2023-02-28T05:26:55.852Z,103148.72
2023-02-28T05:29:59.983Z,103146.06
2023-02-28T05:33:02.973Z,103154.03
2023-02-28T05:36:07.022Z,103148.72
2023-02-28T05:39:13.459Z,103144.31
2023-02-28T05:42:17.833Z,103144.31
2023-02-28T05:45:20.781Z,103146.06
2023-02-28T05:48:23.751Z,103151.38
2023-02-28T05:51:26.862Z,103162.03
2023-02-28T05:54:29.896Z,103156.72
2023-02-28T05:57:34.330Z,103166.47
2023-02-28T06:00:37.345Z,103171.75
2023-02-28T06:03:40.292Z,103164.69
2023-02-28T06:06:43.473Z,103172.69
2023-02-28T06:09:46.413Z,103176.22
2023-02-28T06:12:50.725Z,103174.44
2023-02-28T06:15:53.691Z,103168.22
2023-02-28T06:18:57.774Z,103169.09
2023-02-28T06:22:00.814Z,103175.34
2023-02-28T06:25:03.961Z,103172.69
2023-02-28T06:28:08.301Z,103186.00
2023-02-28T06:31:13.011Z,103181.56
2023-02-28T06:34:16.649Z,103191.38
2023-02-28T06:37:19.981Z,103191.41
2023-02-28T06:40:22.932Z,103195.84
2023-02-28T06:43:30.591Z,103188.72
2023-02-28T06:46:34.590Z,103194.06
2023-02-28T06:49:38.222Z,103191.38
2023-02-28T06:52:41.422Z,103185.19
2023-02-28T06:55:44.432Z,103196.75
2023-02-28T06:58:50.637Z,103196.75
2023-02-28T07:01:53.743Z,103199.44
2023-02-28T07:04:56.870Z,103199.44
2023-02-28T07:07:59.925Z,103202.09
2023-02-28T07:11:03.013Z,103207.44
2023-02-28T07:14:07.408Z,103209.22
2023-02-28T07:17:11.900Z,103210.09
2023-02-28T07:20:15.378Z,103210.09
2023-02-28T07:23:18.814Z,103211.00
2023-02-28T07:26:23.044Z,103211.00
2023-02-28T07:29:27.997Z,103212.75
2023-02-28T07:32:31.044Z,103213.63
2023-02-28T07:35:34.555Z,103210.94
2023-02-28T07:38:38.456Z,103205.63
2023-02-28T07:41:44.510Z,103211.84
2023-02-28T07:44:48.977Z,103210.94
2023-02-28T07:47:52.387Z,103210.03
2023-02-28T07:50:57.454Z,103210.91
2023-02-28T07:54:00.715Z,103216.22
2023-02-28T07:57:03.947Z,103210.91
2023-02-28T08:00:11.439Z,103208.22
2023-02-28T08:03:17.762Z,103216.19
2023-02-28T08:06:24.084Z,103210.88
2023-02-28T08:09:27.206Z,103209.94
2023-02-28T08:12:30.289Z,103211.72
2023-02-28T08:15:35.017Z,103209.00
2023-02-28T08:18:38.360Z,103207.25
2023-02-28T08:21:41.485Z,103209.88
2023-02-28T08:24:44.948Z,103215.22
2023-02-28T08:27:48.037Z,103209.88
2023-02-28T08:30:52.855Z,103207.22
2023-02-28T08:33:59.822Z,103214.31
2023-02-28T08:37:02.875Z,103204.53
2023-02-28T08:40:06.913Z,103211.66
2023-02-28T08:43:09.969Z,103209.88
2023-02-28T08:46:15.682Z,103209.91
2023-02-28T08:49:19.688Z,103209.00
2023-02-28T08:52:22.682Z,103212.59
2023-02-28T08:55:25.713Z,103215.25
2023-02-28T08:58:29.223Z,103217.91
2023-02-28T09:01:33.840Z,103213.50
2023-02-28T09:04:37.060Z,103219.72
2023-02-28T09:07:40.018Z,103218.88
2023-02-28T09:10:43.028Z,103218.88
2023-02-28T09:13:46.207Z,103219.72
2023-02-28T09:16:50.688Z,103218.88
2023-02-28T09:19:53.754Z,103210.88
2023-02-28T09:22:57.686Z,103214.41
2023-02-28T09:26:00.764Z,103213.50
2023-02-28T09:29:04.881Z,103215.28
2023-02-28T09:32:09.339Z,103216.19
2023-02-28T09:35:15.479Z,103212.63
2023-02-28T09:38:19.034Z,103215.25
2023-02-28T09:41:24.807Z,103212.63
2023-02-28T09:44:33.848Z,103211.72
2023-02-28T09:47:42.898Z,103205.50
2023-02-28T09:50:50.320Z,103213.50
2023-02-28T09:54:00.076Z,103213.53
2023-02-28T09:57:10.886Z,103217.97
2023-02-28T10:00:20.421Z,103211.75
2023-02-28T10:03:37.807Z,103217.09
2023-02-28T10:06:47.488Z,103223.31
2023-02-28T10:09:55.678Z,103223.34
2023-02-28T10:13:03.078Z,103226.00
2023-02-28T10:16:10.621Z,103226.88
2023-02-28T10:19:21.172Z,103229.56
2023-02-28T10:22:31.593Z,103232.22
2023-02-28T10:25:34.567Z,103234.00
2023-02-28T10:28:37.689Z,103228.66
2023-02-28T10:31:41.753Z,103234.88
2023-02-28T10:34:46.462Z,103226.03
2023-02-28T10:37:51.027Z,103218.03
2023-02-28T10:41:05.877Z,103212.72
2023-02-28T10:44:19.714Z,103196.72
2023-02-28T10:47:22.746Z,103192.28
2023-02-28T10:50:34.577Z,103182.53
2023-02-28T10:54:00.502Z,103180.75
2023-02-28T10:57:25.407Z,103170.09
2023-02-28T11:00:36.665Z,103175.44
2023-02-28T11:03:39.636Z,103178.09
2023-02-28T11:06:44.042Z,103173.66
2023-02-28T11:09:50.240Z,103172.78
2023-02-28T11:12:58.703Z,103178.97
2023-02-28T11:16:06.235Z,103180.75
2023-02-28T11:19:21.363Z,103184.31
2023-02-28T11:22:30.160Z,103185.19
2023-02-28T11:25:35.716Z,103188.75
2023-02-28T11:28:40.207Z,103190.53
2023-02-28T11:31:43.327Z,103187.88
2023-02-28T11:34:48.450Z,103185.19
2023-02-28T11:37:52.887Z,103181.66
2023-02-28T11:41:11.788Z,103184.28
2023-02-28T11:44:28.567Z,103186.06
2023-02-28T11:47:40.156Z,103180.72
2023-02-28T11:50:55.945Z,103180.72
2023-02-28T11:54:27.309Z,103169.19
2023-02-28T11:57:38.324Z,103169.19
2023-02-28T12:00:59.306Z,103164.75
2023-02-28T12:04:17.983Z,103169.19
2023-02-28T12:07:30.338Z,103157.63
2023-02-28T12:10:46.525Z,103153.19
2023-02-28T12:14:03.088Z,103146.06
2023-02-28T12:17:18.898Z,103140.75
2023-02-28T12:20:32.985Z,103136.31
2023-02-28T12:23:59.655Z,103131.84
2023-02-28T12:27:08.578Z,103127.41
2023-02-28T12:30:20.370Z,103115.88
2023-02-28T12:33:29.935Z,103105.19
2023-02-28T12:36:35.923Z,103092.75
2023-02-28T12:39:50.274Z,103089.22
2023-02-28T12:42:59.359Z,103083.88
2023-02-28T12:46:10.143Z,103083.88
2023-02-28T12:49:17.662Z,103077.66
2023-02-28T12:52:25.720Z,103080.31
2023-02-28T12:55:37.587Z,103072.31
2023-02-28T12:58:47.397Z,103075.88
2023-02-28T13:02:02.446Z,103078.53
2023-02-28T13:05:20.809Z,103080.31
2023-02-28T13:08:42.478Z,103075.00
2023-02-28T13:11:47.189Z,103075.84
2023-02-28T13:14:52.573Z,103072.31
2023-02-28T13:17:58.920Z,103075.00
2023-02-28T13:21:03.141Z,103077.66
2023-02-28T13:24:07.278Z,103079.44
2023-02-28T13:27:39.799Z,103075.88
2023-02-28T13:31:09.086Z,103073.22
2023-02-28T13:34:18.338Z,103073.22
2023-02-28T13:37:43.862Z,103066.09
2023-02-28T13:40:46.846Z,103060.78
2023-02-28T13:44:04.663Z,103071.44
2023-02-28T13:47:30.003Z,103066.09
2023-02-28T13:50:38.614Z,103064.34
2023-02-28T13:54:03.143Z,103061.69
2023-02-28T13:57:22.937Z,103061.69
2023-02-28T14:00:37.625Z,103050.13
2023-02-28T14:04:01.028Z,103047.47
2023-02-28T14:07:05.212Z,103055.50
2023-02-28T14:10:10.251Z,103039.50
2023-02-28T14:13:37.974Z,103044.84
2023-02-28T14:16:45.802Z,103043.91
2023-02-28T14:19:51.312Z,103038.59
2023-02-28T14:23:03.356Z,103035.91
2023-02-28T14:26:21.195Z,103046.59
2023-02-28T14:29:44.042Z,103044.81
2023-02-28T14:32:53.362Z,103039.47
2023-02-28T14:36:08.336Z,103036.78
2023-02-28T14:39:16.455Z,103037.69
2023-02-28T14:42:31.605Z,103043.03
2023-02-28T14:45:38.411Z,103037.69
2023-02-28T14:48:41.805Z,103039.47
2023-02-28T14:51:48.243Z,103035.06
2023-02-28T14:54:55.590Z,103028.81
2023-02-28T14:57:59.759Z,103031.47
2023-02-28T15:01:05.024Z,103029.69
2023-02-28T15:04:08.533Z,103035.06
2023-02-28T15:07:15.917Z,103027.91
2023-02-28T15:10:21.653Z,103023.47
2023-02-28T15:13:28.191Z,103020.81
2023-02-28T15:16:36.495Z,103022.56
2023-02-28T15:19:44.281Z,103025.19
2023-02-28T15:22:51.746Z,103019.88
2023-02-28T15:25:55.927Z,103016.28
2023-02-28T15:29:02.593Z,103017.16
2023-02-28T15:32:08.369Z,103014.47
2023-02-28T15:35:22.942Z,103007.41
2023-02-28T15:38:28.970Z,103010.91
2023-02-28T15:41:33.588Z,103004.72
2023-02-28T15:44:38.048Z,103013.59
2023-02-28T15:47:41.204Z,103010.06
2023-02-28T15:50:44.276Z,103011.81
2023-02-28T15:53:51.960Z,103002.91
2023-02-28T15:56:57.608Z,103010.03
2023-02-28T16:00:05.365Z,103010.03
2023-02-28T16:03:29.262Z,103005.59
2023-02-28T16:06:38.612Z,103009.13
2023-02-28T16:09:43.563Z,103014.47
2023-02-28T16:12:47.038Z,103007.41
2023-02-28T16:15:52.397Z,103005.63
2023-02-28T16:18:55.986Z,103005.63
2023-02-28T16:21:59.310Z,103007.41
2023-02-28T16:25:05.201Z,103001.19
2023-02-28T16:28:14.604Z,102994.06
2023-02-28T16:31:17.665Z,103001.16
2023-02-28T16:34:20.625Z,102998.44
2023-02-28T16:37:23.594Z,103001.91
2023-02-28T16:40:29.576Z,103010.72
2023-02-28T16:43:33.322Z,103015.09
2023-02-28T16:46:37.097Z,103014.13
2023-02-28T16:49:40.655Z,103018.56
2023-02-28T16:52:43.623Z,103010.50
2023-02-28T16:55:48.431Z,103028.22
2023-02-28T16:58:52.368Z,103021.97
2023-02-28T17:01:56.990Z,103021.94
2023-02-28T17:05:00.347Z,103019.22
2023-02-28T17:08:03.239Z,103024.50
2023-02-28T17:11:07.521Z,103028.88
2023-02-28T17:14:10.361Z,103027.91
2023-02-28T17:17:19.984Z,103019.84
2023-02-28T17:20:24.488Z,103023.31
2023-02-28T17:23:27.358Z,103021.47
2023-02-28T17:26:32.271Z,103025.84
2023-02-28T17:29:35.687Z,103037.38
2023-02-28T17:32:38.542Z,103032.94
2023-02-28T17:35:41.512Z,103030.28
2023-02-28T17:38:44.489Z,103036.50
2023-02-28T17:41:48.711Z,103034.78
2023-02-28T17:44:51.530Z,103031.25
2023-02-28T17:47:54.497Z,103032.16
2023-02-28T17:50:57.437Z,103033.09
2023-02-28T17:54:00.691Z,103032.25
2023-02-28T17:57:05.136Z,103046.50
2023-02-28T18:00:09.187Z,103049.19
2023-02-28T18:03:14.986Z,103048.31
2023-02-28T18:06:21.157Z,103054.56
2023-02-28T18:09:24.789Z,103059.94
2023-02-28T18:12:29.276Z,103066.13
2023-02-28T18:15:32.998Z,103067.94
2023-02-28T18:18:38.141Z,103074.13
2023-02-28T18:21:41.051Z,103069.69
2023-02-28T18:24:43.948Z,103072.31
2023-02-28T18:27:58.235Z,103073.16
2023-02-28T18:31:07.469Z,103069.56
2023-02-28T18:34:10.436Z,103074.91
2023-02-28T18:37:13.305Z,103075.75
2023-02-28T18:40:16.603Z,103076.63
2023-02-28T18:43:20.877Z,103068.59
2023-02-28T18:46:23.868Z,103076.63
2023-02-28T18:49:26.918Z,103083.69
2023-02-28T18:52:29.838Z,103075.69
2023-02-28T18:55:34.166Z,103081.03
2023-02-28T18:58:38.527Z,103087.28
2023-02-28T19:01:41.412Z,103087.28
2023-02-28T19:04:44.456Z,103091.69
2023-02-28T19:07:47.798Z,103083.72
2023-02-28T19:10:50.740Z,103083.69
2023-02-28T19:13:54.944Z,103073.94
2023-02-28T19:16:57.915Z,103073.94
2023-02-28T19:20:01.014Z,103066.81
2023-02-28T19:23:03.905Z,103066.81
2023-02-28T19:26:08.138Z,103070.38
2023-02-28T19:29:12.386Z,103063.28
2023-02-28T19:32:15.357Z,103058.78
2023-02-28T19:35:18.651Z,103066.75
2023-02-28T19:38:21.796Z,103066.72
2023-02-28T19:41:24.710Z,103065.81
2023-02-28T19:44:29.273Z,103075.59
2023-02-28T19:47:32.383Z,103059.53
2023-02-28T19:50:37.097Z,103071.97
2023-02-28T19:53:41.396Z,103072.84
2023-02-28T19:56:44.361Z,103059.50
2023-02-28T19:59:49.581Z,103056.78
2023-02-28T20:02:53.455Z,103063.00
2023-02-28T20:06:04.652Z,103062.09
2023-02-28T20:09:07.538Z,103062.94
2023-02-28T20:12:23.179Z,103062.94
2023-02-28T20:15:28.240Z,103057.59
2023-02-28T20:18:31.105Z,103058.50
2023-02-28T20:21:34.009Z,103051.38
2023-02-28T20:24:37.300Z,103060.28
2023-02-28T20:27:40.190Z,103054.03
2023-02-28T20:30:45.852Z,103051.38
2023-02-28T20:33:49.388Z,103062.94
2023-02-28T20:36:52.421Z,103062.03
2023-02-28T20:39:55.302Z,103066.53
2023-02-28T20:42:58.283Z,103067.38
2023-02-28T20:46:03.036Z,103062.94
2023-02-28T20:49:06.179Z,103062.94
2023-02-28T20:52:09.202Z,103066.47
2023-02-28T20:55:13.750Z,103064.72
2023-02-28T20:58:16.715Z,103064.72
2023-02-28T21:01:25.952Z,103050.44
2023-02-28T21:04:29.078Z,103040.66
2023-02-28T21:07:32.011Z,103046.88
2023-02-28T21:10:34.987Z,103048.63
2023-02-28T21:13:38.496Z,103053.06
2023-02-28T21:16:44.350Z,103051.28
2023-02-28T21:19:47.539Z,103052.16
2023-02-28T21:22:50.573Z,103053.94
2023-02-28T21:25:53.476Z,103054.81
2023-02-28T21:28:58.404Z,103055.66
2023-02-28T21:32:02.725Z,103051.22
2023-02-28T21:35:07.383Z,103053.00
2023-02-28T21:38:10.297Z,103059.19
2023-02-28T21:41:15.675Z,103059.19
2023-02-28T21:44:19.328Z,103070.75
2023-02-28T21:47:24.149Z,103066.31
2023-02-28T21:50:27.066Z,103066.31
2023-02-28T21:53:31.427Z,103070.75
2023-02-28T21:56:36.084Z,103067.16
2023-02-28T21:59:38.927Z,103061.84
2023-02-28T22:02:43.289Z,103062.75
2023-02-28T22:05:46.222Z,103068.13
2023-02-28T22:08:51.112Z,103069.94
2023-02-28T22:11:54.147Z,103073.53
2023-02-28T22:14:57.037Z,103075.31
2023-02-28T22:18:01.302Z,103068.25
2023-02-28T22:21:04.966Z,103073.56
2023-02-28T22:24:09.238Z,103070.91
2023-02-28T22:27:12.118Z,103072.66
2023-02-28T22:30:15.506Z,103075.31
2023-02-28T22:33:19.946Z,103080.66
2023-02-28T22:36:24.202Z,103083.31
2023-02-28T22:39:27.142Z,103082.47
2023-02-28T22:42:33.238Z,103086.00
2023-02-28T22:45:37.009Z,103094.00
2023-02-28T22:48:41.498Z,103094.00
2023-02-28T22:51:44.550Z,103094.88
2023-02-28T22:54:50.884Z,103096.63
2023-02-28T22:57:53.830Z,103096.63
2023-02-28T23:00:57.821Z,103083.25
2023-02-28T23:04:02.822Z,103080.63
2023-02-28T23:07:05.845Z,103080.63
2023-02-28T23:10:11.217Z,103079.72
2023-02-28T23:13:14.071Z,103083.31
2023-02-28T23:16:16.931Z,103082.44
2023-02-28T23:19:23.644Z,103080.66
2023-02-28T23:22:26.676Z,103083.31
2023-02-28T23:25:29.740Z,103091.34
2023-02-28T23:28:32.686Z,103088.66
2023-02-28T23:31:35.597Z,103092.25
2023-02-28T23:34:39.843Z,103078.91
2023-02-28T23:37:43.297Z,103076.28
2023-02-28T23:40:46.185Z,103077.13
2023-02-28T23:43:49.619Z,103086.97
2023-02-28T23:46:54.415Z,103086.97
2023-02-28T23:49:58.707Z,103077.22
2023-02-28T23:53:01.594Z,103079.00
2023-02-28T23:56:04.920Z,103084.38
2023-02-28T23:59:08.104Z,103074.59
